Time;durP1;ratioP1;P1;durP2;ratioP2;P2;SDS_P1;SDS_P2;PMS_P1;PMS_P2;Temp;Humidity;BMP_temperature;BMP_pressure;BME280_temperature;BME280_humidity;BME280_pressure;Samples;Min_cycle;Max_cycle;Signal;HPM_P1;HPM_P2
2022/05/07 00:00:41;;;;;;;4.95;4.20;;;21.20;99.90;;;;;;4210983;28;20219;-76
2022/05/07 00:02:43;;;;;;;5.18;4.55;;;21.20;99.90;;;;;;4207668;28;20222;-76
2022/05/07 00:04:45;;;;;;;6.95;4.68;;;21.20;99.90;;;;;;4208122;28;20234;-76
2022/05/07 00:06:49;;;;;;;5.25;4.32;;;21.20;99.90;;;;;;4208964;28;20214;-76
2022/05/07 00:08:52;;;;;;;5.20;4.03;;;21.20;99.90;;;;;;4210055;28;20266;-76
2022/05/07 00:10:54;;;;;;;4.88;4.15;;;21.20;99.90;;;;;;4210667;28;20632;-76
2022/05/07 00:12:57;;;;;;;5.70;4.40;;;21.20;99.90;;;;;;4209300;28;20301;-76
2022/05/07 00:14:59;;;;;;;5.22;4.13;;;21.10;99.90;;;;;;4210482;28;20222;-76
2022/05/07 00:19:21;;;;;;;4.85;4.32;;;21.10;99.90;;;;;;4210155;28;20210;-76
2022/05/07 00:21:24;;;;;;;4.57;3.97;;;21.10;99.90;;;;;;4210952;28;20214;-76
2022/05/07 00:23:27;;;;;;;5.80;4.10;;;21.10;99.90;;;;;;4209812;28;20218;-76
2022/05/07 00:25:32;;;;;;;5.45;4.30;;;21.10;99.90;;;;;;4209888;28;20219;-76
2022/05/07 00:27:34;;;;;;;4.97;4.40;;;21.10;99.90;;;;;;4210237;28;20226;-76
2022/05/07 00:29:36;;;;;;;4.63;4.20;;;21.10;99.90;;;;;;4209648;28;20215;-76
2022/05/07 00:31:39;;;;;;;5.10;4.55;;;21.10;99.90;;;;;;4209711;28;20238;-76
2022/05/07 00:33:41;;;;;;;4.75;4.13;;;21.10;99.90;;;;;;4209405;28;20248;-76
2022/05/07 00:35:43;;;;;;;5.32;4.30;;;21.10;99.90;;;;;;4209606;28;20222;-76
2022/05/07 00:37:46;;;;;;;6.70;4.38;;;21.10;99.90;;;;;;4209559;28;20275;-76
2022/05/07 00:39:49;;;;;;;5.07;4.43;;;21.10;99.90;;;;;;4209485;28;20288;-76
2022/05/07 00:41:52;;;;;;;5.18;4.53;;;21.10;99.90;;;;;;4210217;28;20210;-77
2022/05/07 00:43:54;;;;;;;5.03;4.53;;;21.10;99.90;;;;;;4208352;28;20258;-76
2022/05/07 00:45:57;;;;;;;4.63;4.18;;;21.10;99.90;;;;;;4209620;28;20218;-76
2022/05/07 00:47:59;;;;;;;4.88;4.20;;;21.10;99.90;;;;;;4207069;28;20222;-76
2022/05/07 00:52:20;;;;;;;5.03;4.38;;;21.10;99.90;;;;;;4208402;28;20234;-76
2022/05/07 00:54:23;;;;;;;4.97;4.22;;;21.10;99.90;;;;;;4207357;28;20674;-76
2022/05/07 00:56:27;;;;;;;4.60;4.20;;;21.00;99.90;;;;;;4207738;28;20245;-76
2022/05/07 00:58:30;;;;;;;5.05;4.30;;;21.00;99.90;;;;;;4208903;28;20738;-76
2022/05/07 01:00:32;;;;;;;4.85;4.38;;;21.00;99.90;;;;;;4208642;28;20291;-76
2022/05/07 01:02:36;;;;;;;4.65;3.92;;;21.00;99.90;;;;;;4208955;28;20219;-75
2022/05/07 01:04:38;;;;;;;5.05;4.63;;;21.00;99.90;;;;;;4207754;28;20230;-76
2022/05/07 01:06:41;;;;;;;5.00;4.20;;;21.10;99.90;;;;;;4208472;28;20241;-76
2022/05/07 01:08:44;;;;;;;5.00;4.50;;;21.00;99.90;;;;;;4208685;28;20343;-76
2022/05/07 01:10:46;;;;;;;5.82;4.40;;;21.00;99.90;;;;;;4206082;28;20312;-76
2022/05/07 01:12:50;;;;;;;6.20;4.25;;;21.00;99.90;;;;;;4208275;28;20238;-76
2022/05/07 01:14:56;;;;;;;4.75;4.25;;;21.00;99.90;;;;;;4208390;28;20218;-76
2022/05/07 01:17:01;;;;;;;6.70;4.45;;;21.00;99.90;;;;;;4206552;28;20283;-76
2022/05/07 01:19:03;;;;;;;5.32;4.38;;;21.00;99.90;;;;;;4208209;28;20222;-76
2022/05/07 01:21:18;;;;;;;5.05;4.50;;;21.00;99.90;;;;;;4207604;28;20230;-76
2022/05/07 01:23:21;;;;;;;5.75;4.47;;;21.00;99.90;;;;;;4207049;28;20210;-76
2022/05/07 01:25:23;;;;;;;6.13;4.45;;;21.00;99.90;;;;;;4208375;28;20214;-76
2022/05/07 01:27:25;;;;;;;5.05;4.10;;;21.00;99.90;;;;;;4208376;28;20337;-76
2022/05/07 01:29:28;;;;;;;5.55;3.92;;;21.00;99.90;;;;;;4208813;28;20272;-76
2022/05/07 01:31:30;;;;;;;5.05;3.92;;;21.00;99.90;;;;;;4207811;28;20226;-76
2022/05/07 01:33:34;;;;;;;5.70;4.70;;;21.00;99.90;;;;;;4207440;28;20284;-76
2022/05/07 01:35:36;;;;;;;6.05;4.25;;;21.00;99.90;;;;;;4207830;28;20222;-76
2022/05/07 01:37:40;;;;;;;5.45;4.00;;;21.00;99.90;;;;;;4207797;28;20248;-76
2022/05/07 01:39:42;;;;;;;6.90;4.88;;;21.00;99.90;;;;;;4207658;28;20217;-76
2022/05/07 01:41:45;;;;;;;4.85;4.10;;;21.00;99.90;;;;;;4207749;28;20275;-76
2022/05/07 01:43:47;;;;;;;4.70;4.22;;;21.00;99.90;;;;;;4206019;28;20211;-76
2022/05/07 01:45:49;;;;;;;6.05;4.40;;;20.90;99.90;;;;;;4208214;28;20272;-76
2022/05/07 01:50:12;;;;;;;4.78;4.25;;;21.00;99.90;;;;;;4208546;28;20203;-76
2022/05/07 01:52:14;;;;;;;6.32;4.70;;;20.90;99.90;;;;;;4207668;28;20214;-76
2022/05/07 01:54:18;;;;;;;5.60;4.68;;;21.00;99.90;;;;;;4208322;28;22048;-76
2022/05/07 01:56:20;;;;;;;4.85;4.35;;;20.90;99.90;;;;;;4208624;28;20627;-76
2022/05/07 01:58:22;;;;;;;4.53;4.13;;;20.90;99.90;;;;;;4207741;28;20227;-76
2022/05/07 02:00:26;;;;;;;6.00;4.30;;;20.90;99.90;;;;;;4208280;28;20218;-76
2022/05/07 02:02:28;;;;;;;6.70;4.60;;;20.90;99.90;;;;;;4207485;28;20666;-76
2022/05/07 02:04:31;;;;;;;4.50;4.05;;;20.90;99.90;;;;;;4207078;28;20242;-76
2022/05/07 02:06:33;;;;;;;5.70;4.05;;;20.90;99.90;;;;;;4207022;28;20635;-76
2022/05/07 02:08:36;;;;;;;4.95;4.10;;;20.90;99.90;;;;;;4207273;28;20230;-76
2022/05/07 02:10:39;;;;;;;5.07;4.15;;;20.90;99.90;;;;;;4207653;28;20659;-76
2022/05/07 02:12:42;;;;;;;4.75;4.25;;;20.90;99.90;;;;;;4208097;28;20230;-76
2022/05/07 02:14:44;;;;;;;5.22;3.60;;;20.90;99.90;;;;;;4207701;28;20218;-76
2022/05/07 02:16:46;;;;;;;5.20;3.83;;;20.90;99.90;;;;;;4207903;28;20260;-76
2022/05/07 02:18:49;;;;;;;4.78;4.35;;;20.90;99.90;;;;;;4207409;28;20214;-76
2022/05/07 02:20:52;;;;;;;5.28;3.83;;;20.90;99.90;;;;;;4206981;28;20237;-76
2022/05/07 02:22:56;;;;;;;4.25;3.85;;;20.90;99.90;;;;;;4208063;28;20263;-76
2022/05/07 02:24:59;;;;;;;5.15;4.35;;;20.90;99.90;;;;;;4207912;28;20227;-76
2022/05/07 02:27:03;;;;;;;4.82;4.32;;;20.90;99.90;;;;;;4208676;28;20218;-76
2022/05/07 02:29:05;;;;;;;4.28;3.80;;;20.90;99.90;;;;;;4210807;28;20237;-76
2022/05/07 02:31:07;;;;;;;5.30;4.22;;;20.90;99.90;;;;;;4210780;28;20218;-76
2022/05/07 02:33:10;;;;;;;4.97;3.88;;;20.90;99.90;;;;;;4210993;28;20751;-76
2022/05/07 02:35:12;;;;;;;4.93;4.43;;;20.80;99.90;;;;;;4210573;28;20222;-76
2022/05/07 02:37:14;;;;;;;4.10;3.70;;;20.90;99.90;;;;;;4211407;28;20570;-76
2022/05/07 02:39:17;;;;;;;5.32;4.40;;;20.90;99.90;;;;;;4210308;28;20231;-76
2022/05/07 02:43:40;;;;;;;6.75;4.10;;;20.80;99.90;;;;;;4208925;28;20207;-76
2022/05/07 02:45:43;;;;;;;4.38;3.90;;;20.90;99.90;;;;;;4210128;28;20222;-76
2022/05/07 02:47:45;;;;;;;5.05;3.67;;;20.90;99.90;;;;;;4210858;28;20214;-76
2022/05/07 02:49:47;;;;;;;5.05;4.25;;;20.90;99.90;;;;;;4210686;28;20271;-76
2022/05/07 02:51:49;;;;;;;5.10;4.60;;;20.80;99.90;;;;;;4210756;28;20698;-76
2022/05/07 02:53:52;;;;;;;4.75;3.72;;;20.90;99.90;;;;;;4211193;28;20230;-76
2022/05/07 02:55:54;;;;;;;5.82;3.70;;;20.90;99.90;;;;;;4210437;28;20226;-76
2022/05/07 02:57:56;;;;;;;4.85;4.13;;;20.80;99.90;;;;;;4210528;28;20222;-76
2022/05/07 03:00:00;;;;;;;5.45;4.03;;;20.80;99.90;;;;;;4210581;28;20268;-76
2022/05/07 03:02:03;;;;;;;4.30;3.90;;;20.80;99.90;;;;;;4209606;28;20663;-76
2022/05/07 03:04:05;;;;;;;4.80;3.72;;;20.80;99.90;;;;;;4211140;28;20626;-76
2022/05/07 03:06:08;;;;;;;4.43;3.85;;;20.80;99.90;;;;;;4210889;28;20287;-76
2022/05/07 03:08:11;;;;;;;4.57;3.90;;;20.80;99.90;;;;;;4210728;28;20675;-76
2022/05/07 03:10:13;;;;;;;4.50;4.10;;;20.80;99.90;;;;;;4210409;28;20264;-76
2022/05/07 03:12:16;;;;;;;5.57;4.15;;;20.80;99.90;;;;;;4210316;28;20264;-76
2022/05/07 03:14:18;;;;;;;6.00;3.97;;;20.80;99.90;;;;;;4210452;28;20292;-76
2022/05/07 03:16:22;;;;;;;4.57;3.92;;;20.80;99.90;;;;;;4210751;28;20265;-76
2022/05/07 03:18:24;;;;;;;5.38;3.80;;;20.80;99.90;;;;;;4210233;28;20350;-76
2022/05/07 03:20:26;;;;;;;4.10;3.55;;;20.80;99.90;;;;;;4209745;28;20291;-76
2022/05/07 03:22:29;;;;;;;5.22;4.20;;;20.80;99.90;;;;;;4209853;28;20230;-76
2022/05/07 03:24:31;;;;;;;6.22;3.97;;;20.80;99.90;;;;;;4209760;28;20214;-76
2022/05/07 03:26:34;;;;;;;4.05;3.60;;;20.80;99.90;;;;;;4209619;28;20226;-76
2022/05/07 03:28:36;;;;;;;4.20;3.85;;;20.80;99.90;;;;;;4210938;28;20949;-76
2022/05/07 03:30:38;;;;;;;3.90;3.50;;;20.70;99.90;;;;;;4209975;28;20219;-76
2022/05/07 03:32:42;;;;;;;4.28;3.88;;;20.70;99.90;;;;;;4210088;28;20222;-76
2022/05/07 03:34:44;;;;;;;4.20;3.80;;;20.70;99.90;;;;;;4209882;28;20259;-76
2022/05/07 03:36:47;;;;;;;4.28;3.63;;;20.70;99.90;;;;;;4210046;28;20264;-76
2022/05/07 03:38:49;;;;;;;4.25;3.80;;;20.80;99.90;;;;;;4208687;28;20222;-76
2022/05/07 03:40:51;;;;;;;3.92;3.45;;;20.70;99.90;;;;;;4209998;28;20268;-76
2022/05/07 03:42:55;;;;;;;5.97;3.97;;;20.70;99.90;;;;;;4208580;28;20256;-76
2022/05/07 03:45:00;;;;;;;4.60;3.75;;;20.70;99.90;;;;;;4210018;28;20218;-76
2022/05/07 03:47:02;;;;;;;3.83;3.45;;;20.70;99.90;;;;;;4209580;28;20260;-76
2022/05/07 03:49:06;;;;;;;4.35;3.72;;;20.70;99.90;;;;;;4209868;28;20704;-76
2022/05/07 03:51:08;;;;;;;4.95;3.88;;;20.70;99.90;;;;;;4209964;28;20307;-76
2022/05/07 03:55:31;;;;;;;3.80;3.40;;;20.70;99.90;;;;;;4210272;28;20210;-76
2022/05/07 03:57:33;;;;;;;5.80;4.20;;;20.60;99.90;;;;;;4208882;28;20226;-76
2022/05/07 03:59:35;;;;;;;3.97;3.58;;;20.60;99.90;;;;;;4209441;28;20264;-76
2022/05/07 04:01:38;;;;;;;5.90;3.78;;;20.60;99.90;;;;;;4209153;28;20687;-76
2022/05/07 04:03:40;;;;;;;4.72;3.90;;;20.60;99.90;;;;;;4209001;28;20239;-76
2022/05/07 04:05:44;;;;;;;4.72;3.25;;;20.60;99.90;;;;;;4208975;28;20229;-76
2022/05/07 04:07:46;;;;;;;5.07;3.30;;;20.60;99.90;;;;;;4209008;28;20690;-76
2022/05/07 04:09:51;;;;;;;4.38;3.47;;;20.60;99.90;;;;;;4209342;28;20244;-76
2022/05/07 04:11:54;;;;;;;3.95;3.33;;;20.60;99.90;;;;;;4208738;28;20311;-76
2022/05/07 04:13:56;;;;;;;4.78;3.60;;;20.60;99.90;;;;;;4208237;28;20234;-76
2022/05/07 04:15:58;;;;;;;4.88;4.28;;;20.60;99.90;;;;;;4209062;28;20267;-76
2022/05/07 04:18:01;;;;;;;4.40;4.00;;;20.60;99.90;;;;;;4208794;28;20280;-76
2022/05/07 04:20:04;;;;;;;4.75;3.92;;;20.60;99.90;;;;;;4209031;28;20284;-76
2022/05/07 04:22:07;;;;;;;4.63;3.63;;;20.60;99.90;;;;;;4209304;28;20264;-76
2022/05/07 04:24:10;;;;;;;3.45;3.15;;;20.60;99.90;;;;;;4208734;28;20234;-76
2022/05/07 04:26:12;;;;;;;5.22;3.53;;;20.60;99.90;;;;;;4208475;28;20222;-76
2022/05/07 04:28:14;;;;;;;3.90;3.50;;;20.60;99.90;;;;;;4208364;28;20226;-76
2022/05/07 04:30:17;;;;;;;5.38;3.53;;;20.60;99.90;;;;;;4208611;28;20222;-76
2022/05/07 04:32:19;;;;;;;4.50;3.58;;;20.60;99.90;;;;;;4207564;28;20300;-76
2022/05/07 04:34:22;;;;;;;4.30;3.40;;;20.60;99.90;;;;;;4208717;28;20242;-76
2022/05/07 04:36:25;;;;;;;5.53;3.90;;;20.60;99.90;;;;;;4208426;28;20252;-76
2022/05/07 04:38:28;;;;;;;3.97;3.58;;;20.60;99.90;;;;;;4208619;28;20218;-76
2022/05/07 04:40:31;;;;;;;3.83;3.33;;;20.60;99.90;;;;;;4207845;28;20218;-76
2022/05/07 04:42:34;;;;;;;4.60;3.40;;;20.50;99.90;;;;;;4208119;28;20214;-76
2022/05/07 04:44:36;;;;;;;5.22;3.70;;;20.50;99.90;;;;;;4207461;28;20222;-76
2022/05/07 04:46:39;;;;;;;4.90;3.80;;;20.60;99.90;;;;;;4208046;28;20271;-76
2022/05/07 04:48:42;;;;;;;5.97;3.17;;;20.50;99.90;;;;;;4208413;28;20222;-76
2022/05/07 04:50:44;;;;;;;4.72;3.45;;;20.50;99.90;;;;;;4208153;28;20272;-76
2022/05/07 04:52:47;;;;;;;5.57;4.05;;;20.50;99.90;;;;;;4207921;28;20214;-76
2022/05/07 04:54:51;;;;;;;4.60;3.40;;;20.50;99.90;;;;;;4208115;28;20238;-76
2022/05/07 04:56:53;;;;;;;5.07;3.92;;;20.50;99.90;;;;;;4208482;28;20214;-76
2022/05/07 04:58:56;;;;;;;4.50;3.47;;;20.50;99.90;;;;;;4209166;28;20267;-76
2022/05/07 05:00:59;;;;;;;3.63;3.20;;;20.50;99.90;;;;;;4208111;28;20268;-76
2022/05/07 05:03:01;;;;;;;5.13;3.50;;;20.50;99.90;;;;;;4208498;28;20556;-76
2022/05/07 05:05:04;;;;;;;5.05;3.60;;;20.50;99.90;;;;;;4207464;28;20275;-76
2022/05/07 05:07:07;;;;;;;5.45;4.15;;;20.50;99.90;;;;;;4207430;28;20226;-76
2022/05/07 05:09:10;;;;;;;3.88;3.50;;;20.50;99.90;;;;;;4207361;28;20319;-76
2022/05/07 05:11:14;;;;;;;3.85;3.05;;;20.50;99.90;;;;;;4207751;28;20222;-76
2022/05/07 05:13:16;;;;;;;5.00;3.63;;;20.50;99.90;;;;;;4208361;28;20218;-76
2022/05/07 05:15:17;;;;;;;4.50;3.15;;;20.50;99.90;;;;;;4207634;28;20230;-76
2022/05/07 05:17:20;;;;;;;4.30;3.28;;;20.50;99.90;;;;;;4207378;28;20206;-76
2022/05/07 05:19:22;;;;;;;4.60;3.70;;;20.50;99.90;;;;;;4208032;28;20280;-76
2022/05/07 05:21:24;;;;;;;4.45;3.83;;;20.50;99.90;;;;;;4206860;28;20697;-76
2022/05/07 05:23:27;;;;;;;4.70;3.65;;;20.50;99.90;;;;;;4207152;28;20271;-76
2022/05/07 05:25:29;;;;;;;4.03;3.60;;;20.50;99.90;;;;;;4207828;28;20319;-76
2022/05/07 05:27:33;;;;;;;4.25;3.63;;;20.50;99.90;;;;;;4207655;28;20244;-76
2022/05/07 05:29:35;;;;;;;4.38;3.65;;;20.50;99.90;;;;;;4207843;28;20659;-76
2022/05/07 05:31:37;;;;;;;4.80;3.67;;;20.50;99.90;;;;;;4206596;28;20218;-76
2022/05/07 05:33:40;;;;;;;3.80;3.42;;;20.50;99.90;;;;;;4207412;28;20276;-76
2022/05/07 05:35:42;;;;;;;5.15;3.80;;;20.50;99.90;;;;;;4207146;28;20234;-76
2022/05/07 05:37:44;;;;;;;4.20;3.80;;;20.50;99.90;;;;;;4207661;28;20230;-76
2022/05/07 05:39:47;;;;;;;4.03;3.63;;;20.50;99.90;;;;;;4207760;28;20218;-76
2022/05/07 05:41:49;;;;;;;4.63;3.90;;;20.50;99.90;;;;;;4206671;28;20263;-76
2022/05/07 05:43:53;;;;;;;4.28;3.40;;;20.50;99.90;;;;;;4208609;28;20613;-76
2022/05/07 05:45:55;;;;;;;3.97;3.40;;;20.50;99.90;;;;;;4207821;28;20230;-76
2022/05/07 05:48:00;;;;;;;6.15;4.07;;;20.50;99.90;;;;;;4208338;28;20267;-76
2022/05/07 05:50:03;;;;;;;5.15;3.75;;;20.50;99.90;;;;;;4208233;28;20226;-76
2022/05/07 05:52:09;;;;;;;5.00;3.65;;;20.50;99.90;;;;;;4207556;28;20630;-76
2022/05/07 05:54:11;;;;;;;5.18;3.42;;;20.50;99.90;;;;;;4207243;28;20856;-76
2022/05/07 05:56:13;;;;;;;5.50;3.65;;;20.50;99.90;;;;;;4207367;28;20287;-76
2022/05/07 05:58:16;;;;;;;5.63;3.70;;;20.50;99.90;;;;;;4207706;28;20234;-76
2022/05/07 06:00:20;;;;;;;3.97;3.58;;;20.50;99.90;;;;;;4207272;28;20234;-75
2022/05/07 06:02:23;;;;;;;6.22;3.90;;;20.50;99.90;;;;;;4208220;28;20222;-76
2022/05/07 06:04:25;;;;;;;3.70;3.40;;;20.50;99.90;;;;;;4210813;28;20242;-76
2022/05/07 06:06:27;;;;;;;4.00;3.53;;;20.50;99.90;;;;;;4210573;28;20226;-76
2022/05/07 06:08:29;;;;;;;4.13;3.50;;;20.50;99.90;;;;;;4210609;28;20259;-76
2022/05/07 06:10:32;;;;;;;4.03;3.60;;;20.50;99.90;;;;;;4210931;28;20267;-75
2022/05/07 06:12:35;;;;;;;4.97;3.88;;;20.50;99.90;;;;;;4210063;28;20222;-76
2022/05/07 06:14:37;;;;;;;4.82;3.67;;;20.50;99.90;;;;;;4211025;28;20218;-76
2022/05/07 06:16:41;;;;;;;5.05;3.90;;;20.50;99.90;;;;;;4210703;28;20263;-75
2022/05/07 06:18:43;;;;;;;5.20;3.35;;;20.50;99.90;;;;;;4210419;28;20949;-76
2022/05/07 06:20:45;;;;;;;4.70;3.25;;;20.50;99.90;;;;;;4209184;28;20780;-76
2022/05/07 06:22:48;;;;;;;4.63;3.47;;;20.50;99.90;;;;;;4210159;28;20248;-76
2022/05/07 06:29:29;;;;;;;4.82;3.53;;;20.60;99.90;;;;;;4210850;28;20586;-76
2022/05/07 06:31:31;;;;;;;4.80;3.63;;;20.60;99.90;;;;;;4209524;28;20604;-76
2022/05/07 06:33:35;;;;;;;5.18;4.00;;;20.50;99.90;;;;;;4210663;28;20226;-76
2022/05/07 06:35:37;;;;;;;4.85;3.70;;;20.50;99.90;;;;;;4210139;28;21870;-76
2022/05/07 06:37:46;;;;;;;5.75;3.95;;;20.50;99.90;;;;;;4210007;28;20237;-76
2022/05/07 06:39:48;;;;;;;5.25;3.65;;;20.50;99.90;;;;;;4209859;28;20225;-76
2022/05/07 06:41:51;;;;;;;3.83;3.42;;;20.50;99.90;;;;;;4210513;28;20279;-76
2022/05/07 06:43:53;;;;;;;4.80;3.53;;;20.50;99.90;;;;;;4209704;28;20268;-76
2022/05/07 06:45:55;;;;;;;4.00;3.53;;;20.50;99.90;;;;;;4210235;28;20222;-76
2022/05/07 06:47:57;;;;;;;4.85;3.95;;;20.60;99.90;;;;;;4210552;28;20911;-76
2022/05/07 06:50:01;;;;;;;5.43;4.20;;;20.60;99.90;;;;;;4210116;28;20226;-76
2022/05/07 06:52:04;;;;;;;4.63;3.40;;;20.60;99.90;;;;;;4210059;28;20687;-76
2022/05/07 06:54:07;;;;;;;6.03;4.18;;;20.60;99.90;;;;;;4210056;28;20268;-76
2022/05/07 06:56:10;;;;;;;5.40;3.95;;;20.60;99.90;;;;;;4209056;28;20305;-76
2022/05/07 06:58:12;;;;;;;4.30;3.90;;;20.60;99.90;;;;;;4210589;28;20553;-76
2022/05/07 07:00:15;;;;;;;5.90;4.15;;;20.60;99.90;;;;;;4209640;28;20222;-76
2022/05/07 07:02:18;;;;;;;4.75;4.25;;;20.50;99.90;;;;;;4209314;28;20226;-76
2022/05/07 07:04:20;;;;;;;4.40;3.88;;;20.60;99.90;;;;;;4210033;28;20231;-76
2022/05/07 07:06:24;;;;;;;6.05;4.15;;;20.60;99.90;;;;;;4209499;28;20210;-76
2022/05/07 07:08:29;;;;;;;6.00;3.83;;;20.60;99.90;;;;;;4209714;28;20222;-76
2022/05/07 07:10:31;;;;;;;5.25;3.92;;;20.60;99.90;;;;;;4209896;28;20238;-76
2022/05/07 07:12:38;;;;;;;5.88;4.07;;;20.60;99.90;;;;;;4210746;28;20292;-76
2022/05/07 07:14:40;;;;;;;5.22;4.28;;;20.60;99.90;;;;;;4207401;28;20211;-76
2022/05/07 07:16:43;;;;;;;4.95;3.75;;;20.60;99.90;;;;;;4209447;28;20238;-76
2022/05/07 07:18:45;;;;;;;4.55;3.70;;;20.60;99.90;;;;;;4207294;28;20260;-76
2022/05/07 07:20:49;;;;;;;5.82;4.10;;;20.60;99.90;;;;;;4209158;28;20226;-76
2022/05/07 07:22:52;;;;;;;5.38;4.20;;;20.60;99.90;;;;;;4209641;28;20280;-76
2022/05/07 07:24:55;;;;;;;4.55;4.10;;;20.60;99.90;;;;;;4209860;28;20222;-76
2022/05/07 07:26:57;;;;;;;4.35;3.80;;;20.60;99.90;;;;;;4209570;28;20244;-76
2022/05/07 07:28:59;;;;;;;4.03;3.63;;;20.60;99.90;;;;;;4209971;28;20226;-76
2022/05/07 07:31:02;;;;;;;4.80;4.10;;;20.70;99.90;;;;;;4208435;28;20679;-76
2022/05/07 07:33:06;;;;;;;4.30;3.90;;;20.70;99.90;;;;;;4209580;28;20218;-76
2022/05/07 07:35:09;;;;;;;5.05;3.92;;;20.70;99.90;;;;;;4209324;28;20264;-76
2022/05/07 07:37:12;;;;;;;6.47;3.90;;;20.70;99.90;;;;;;4208864;28;20230;-76
2022/05/07 07:39:16;;;;;;;5.10;4.15;;;20.70;99.90;;;;;;4209397;28;20845;-76
2022/05/07 07:41:18;;;;;;;5.57;3.92;;;20.70;99.90;;;;;;4209880;28;20283;-76
2022/05/07 07:43:21;;;;;;;5.32;3.53;;;20.70;99.90;;;;;;4209425;28;20257;-76
2022/05/07 07:47:59;;;;;;;5.78;4.07;;;20.80;99.90;;;;;;4209646;28;20218;-76
2022/05/07 07:50:02;;;;;;;6.78;4.40;;;20.80;99.90;;;;;;4209330;28;20296;-76
2022/05/07 07:52:05;;;;;;;4.72;3.50;;;20.80;99.90;;;;;;4209523;28;20203;-76
2022/05/07 07:54:07;;;;;;;5.47;3.95;;;20.80;99.90;;;;;;4208127;28;20351;-76
2022/05/07 07:56:12;;;;;;;5.18;3.90;;;20.80;99.90;;;;;;4209982;28;20702;-76
2022/05/07 07:58:14;;;;;;;6.25;4.57;;;20.80;99.90;;;;;;4209285;28;20622;-76
2022/05/07 08:00:17;;;;;;;4.90;4.30;;;20.80;99.90;;;;;;4208983;28;20264;-76
2022/05/07 08:02:19;;;;;;;5.68;4.45;;;20.80;99.90;;;;;;4209392;28;20226;-76
2022/05/07 08:04:22;;;;;;;5.72;4.10;;;20.90;99.90;;;;;;4209465;28;20238;-76
2022/05/07 08:06:25;;;;;;;5.22;3.80;;;20.90;99.90;;;;;;4209906;28;20214;-76
2022/05/07 08:13:09;;;;;;;4.20;3.30;;;20.90;99.90;;;;;;4209727;28;20676;-76
2022/05/07 08:15:11;;;;;;;4.15;3.58;;;21.00;99.90;;;;;;4208037;28;20632;-76
2022/05/07 08:17:15;;;;;;;5.28;3.97;;;21.00;99.90;;;;;;4208010;28;20311;-76
2022/05/07 08:19:18;;;;;;;5.07;3.85;;;21.00;99.90;;;;;;4208769;28;20222;-76
2022/05/07 08:21:20;;;;;;;5.05;4.03;;;21.00;99.90;;;;;;4208034;28;20222;-76
2022/05/07 08:23:24;;;;;;;4.22;3.30;;;21.00;99.90;;;;;;4208484;28;20670;-76
2022/05/07 08:25:27;;;;;;;4.10;3.70;;;21.00;99.90;;;;;;4207722;28;20283;-76
2022/05/07 08:27:29;;;;;;;5.15;3.50;;;21.00;99.90;;;;;;4208438;28;20263;-76
2022/05/07 08:29:33;;;;;;;5.97;4.00;;;21.00;99.90;;;;;;4209282;28;20284;-76
2022/05/07 08:31:35;;;;;;;5.28;3.83;;;21.00;99.90;;;;;;4208491;28;20272;-76
2022/05/07 08:33:40;;;;;;;5.25;3.85;;;21.00;99.90;;;;;;4208430;28;20268;-76
2022/05/07 08:35:43;;;;;;;5.95;4.53;;;21.10;99.90;;;;;;4207791;28;20295;-76
2022/05/07 08:37:45;;;;;;;7.80;4.43;;;21.00;99.90;;;;;;4207404;28;20671;-76
2022/05/07 08:39:47;;;;;;;4.75;3.90;;;21.10;99.90;;;;;;4208080;28;20694;-76
2022/05/07 08:41:50;;;;;;;6.65;4.43;;;21.10;99.90;;;;;;4208543;28;20226;-76
2022/05/07 08:43:52;;;;;;;5.32;4.10;;;21.10;99.90;;;;;;4208301;28;20271;-76
2022/05/07 08:45:56;;;;;;;6.68;4.60;;;21.10;99.90;;;;;;4207394;28;20226;-76
2022/05/07 08:47:59;;;;;;;6.15;4.10;;;21.00;99.90;;;;;;4207764;28;20222;-76
2022/05/07 08:50:02;;;;;;;4.45;3.80;;;21.10;99.90;;;;;;4208462;28;20628;-76
2022/05/07 08:52:05;;;;;;;4.35;3.95;;;21.10;99.90;;;;;;4207494;28;20809;-76
2022/05/07 08:54:12;;;;;;;4.03;3.60;;;21.10;99.90;;;;;;4207074;28;20263;-76
2022/05/07 08:56:14;;;;;;;4.30;3.88;;;21.20;99.90;;;;;;4208904;28;20283;-76
2022/05/07 08:58:17;;;;;;;6.47;4.13;;;21.10;99.90;;;;;;4208794;28;20720;-76
2022/05/07 09:00:21;;;;;;;4.20;3.50;;;21.10;99.90;;;;;;4208972;28;20271;-76
2022/05/07 09:02:25;;;;;;;4.45;3.78;;;21.20;99.90;;;;;;4208020;28;20708;-76
2022/05/07 09:04:27;;;;;;;5.15;4.18;;;21.20;99.90;;;;;;4208218;28;20234;-76
2022/05/07 09:06:30;;;;;;;6.55;4.00;;;21.20;99.90;;;;;;4208371;28;20210;-76
2022/05/07 09:08:33;;;;;;;5.18;3.85;;;21.20;99.90;;;;;;4207334;28;20223;-76
2022/05/07 09:10:38;;;;;;;4.57;3.70;;;21.20;99.90;;;;;;4207942;28;20658;-76
2022/05/07 09:12:41;;;;;;;5.75;4.22;;;21.20;99.90;;;;;;4207089;28;20259;-76
2022/05/07 09:14:46;;;;;;;5.68;3.88;;;21.30;99.90;;;;;;4207589;28;20218;-76
2022/05/07 09:16:49;;;;;;;6.60;4.28;;;21.30;99.90;;;;;;4207494;28;20307;-76
2022/05/07 09:18:52;;;;;;;6.28;4.25;;;21.30;99.90;;;;;;4206589;28;20222;-76
2022/05/07 09:21:15;;;;;;;6.15;4.65;;;21.30;99.90;;;;;;4207916;28;20278;-76
2022/05/07 09:23:23;;;;;;;6.57;4.35;;;21.20;99.90;;;;;;4207787;28;20214;-76
2022/05/07 09:25:27;;;;;;;4.95;3.88;;;21.30;99.90;;;;;;4207018;28;20279;-76
2022/05/07 09:27:29;;;;;;;5.47;4.20;;;21.30;99.90;;;;;;4207309;28;20252;-76
2022/05/07 09:29:33;;;;;;;5.35;4.22;;;21.30;99.90;;;;;;4207292;28;20740;-76
2022/05/07 09:31:36;;;;;;;5.68;4.05;;;21.30;99.90;;;;;;4207834;28;20275;-76
2022/05/07 09:33:39;;;;;;;5.15;4.00;;;21.30;99.90;;;;;;4207063;28;20242;-76
2022/05/07 09:35:47;;;;;;;7.57;4.78;;;21.30;99.90;;;;;;4207284;28;20287;-76
2022/05/07 09:37:58;;;;;;;6.10;4.82;;;21.30;99.90;;;;;;4207606;28;20279;-76
2022/05/07 09:40:05;;;;;;;7.40;4.50;;;21.30;99.90;;;;;;4207473;28;20620;-76
2022/05/07 09:42:08;;;;;;;4.85;4.30;;;21.30;99.90;;;;;;4207213;28;20275;-76
2022/05/07 09:44:12;;;;;;;6.03;4.57;;;21.30;99.90;;;;;;4207834;28;20275;-76
2022/05/07 09:46:14;;;;;;;5.35;4.15;;;21.30;99.90;;;;;;4207178;28;20276;-76
2022/05/07 09:48:18;;;;;;;7.70;4.43;;;21.30;99.90;;;;;;4207048;28;20214;-76
2022/05/07 09:50:23;;;;;;;4.47;3.53;;;21.30;99.90;;;;;;4207150;28;20240;-76
2022/05/07 09:52:28;;;;;;;5.45;4.40;;;21.30;99.90;;;;;;4205885;28;20226;-76
2022/05/07 09:59:12;;;;;;;4.65;3.95;;;21.40;99.90;;;;;;4207902;28;20209;-76
2022/05/07 10:01:29;;;;;;;6.10;3.88;;;21.40;99.90;;;;;;4207753;28;20287;-76
2022/05/07 10:03:40;;;;;;;5.43;3.65;;;21.40;99.90;;;;;;4188392;28;20265;-76
2022/05/07 10:05:55;;;;;;;4.82;3.78;;;21.50;99.90;;;;;;4206496;28;20267;-76
2022/05/07 10:08:16;;;;;;;4.63;3.65;;;21.40;99.90;;;;;;4207361;28;20271;-76
2022/05/07 10:10:25;;;;;;;5.43;3.88;;;21.50;99.90;;;;;;4205073;28;20244;-76
2022/05/07 10:12:27;;;;;;;6.20;4.05;;;21.50;99.90;;;;;;4207189;28;20650;-76
2022/05/07 10:14:32;;;;;;;4.90;3.78;;;21.40;99.90;;;;;;4207499;28;20222;-76
2022/05/07 10:16:34;;;;;;;6.70;4.25;;;21.50;99.90;;;;;;4206595;28;20226;-76
2022/05/07 10:18:41;;;;;;;4.55;3.75;;;21.50;99.90;;;;;;4207671;28;20226;-76
2022/05/07 10:20:44;;;;;;;4.85;3.78;;;21.50;99.90;;;;;;4206414;28;20222;-76
2022/05/07 10:22:56;;;;;;;6.07;4.28;;;21.40;99.90;;;;;;4206705;28;20647;-76
2022/05/07 10:25:08;;;;;;;4.97;3.78;;;21.50;99.90;;;;;;4207872;28;20620;-76
2022/05/07 10:27:20;;;;;;;5.32;3.80;;;21.40;99.90;;;;;;4206950;28;20628;-76
2022/05/07 10:29:25;;;;;;;5.75;3.80;;;21.50;99.90;;;;;;4207202;28;20218;-76
2022/05/07 10:31:27;;;;;;;5.28;3.90;;;21.50;99.90;;;;;;4206587;28;20628;-76
2022/05/07 10:33:40;;;;;;;4.38;3.97;;;21.50;99.90;;;;;;4207158;28;20226;-75
2022/05/07 10:35:44;;;;;;;6.07;3.95;;;21.40;99.90;;;;;;4207714;28;20222;-76
2022/05/07 10:37:46;;;;;;;5.65;3.75;;;21.40;99.90;;;;;;4207382;28;20242;-76
2022/05/07 10:39:53;;;;;;;7.90;4.93;;;21.40;99.90;;;;;;4203895;28;20289;-74
2022/05/07 10:41:57;;;;;;;9.50;7.15;;;21.40;99.90;;;;;;4207600;28;20227;-74
2022/05/07 10:44:07;;;;;;;8.38;7.22;;;21.30;99.90;;;;;;4206209;28;20231;-75
2022/05/07 10:46:12;;;;;;;17.73;9.10;;;21.20;99.90;;;;;;4203291;28;20224;-76
2022/05/07 10:48:18;;;;;;;10.90;7.53;;;21.00;99.90;;;;;;4207811;28;20527;-76
2022/05/07 10:50:22;;;;;;;13.63;7.82;;;21.00;99.90;;;;;;4209858;28;20238;-76
2022/05/07 10:52:32;;;;;;;18.35;8.48;;;21.10;99.90;;;;;;4210280;28;20701;-76
2022/05/07 10:54:34;;;;;;;14.15;7.85;;;21.20;99.90;;;;;;4210105;28;20565;-76
2022/05/07 10:56:45;;;;;;;11.13;7.70;;;21.30;99.90;;;;;;4210173;28;20231;-76
2022/05/07 10:58:51;;;;;;;8.20;5.70;;;21.30;99.90;;;;;;4210410;28;20229;-76
2022/05/07 11:00:54;;;;;;;7.70;5.20;;;21.30;99.90;;;;;;4209561;28;20249;-76
2022/05/07 11:02:59;;;;;;;7.82;5.70;;;21.30;99.90;;;;;;4210303;28;20214;-76
2022/05/07 11:05:01;;;;;;;7.13;5.40;;;21.30;99.90;;;;;;4209483;28;20242;-76
2022/05/07 11:07:04;;;;;;;6.25;5.45;;;21.40;99.90;;;;;;4210332;28;20226;-76
2022/05/07 11:09:07;;;;;;;7.38;5.50;;;21.30;99.90;;;;;;4210253;28;20276;-76